Oradell, New Jersey
Current Conditions -  °F | °C
As of 8:51 PM on Saturday 25 Oct 2014 (Local Time) from KTEB Reporting Station
Clear Clear  
Wind Chill: 62°   Ceiling: Unl
Heat Index: 62°   Visibility: 10mi
Dew Point: 43°   Wind: 12mph
Humidity: 50%   Direction: 220°SW
Pressure: 29.6"   Gusts: NA
Location:  40.95°N, 74.03°W
Report Text: KTEB 260051Z 22010KT 10SM CLR 17/06 A2960 RMK AO2 SLP024 T01670061
Loading
Personal Weather Stations






























Interactive Weather Map
Tropical Storm Tracking
New forecast layout! Learn more

10-Day Weather Forecast

Advertisements
Track Severe Weather on mobile